Terminal Aerodrome Forecast
Issued by NWS

Home | Current Version | Previous Version | Text Only | Print | Product List | Glossary On
Versions: 1 2 3 4 5 6 7 8 9 10 11 12 13 14 15 16
899
FTUS43 KIND 261732 CCA
TAFBMG
TAF COR
KBMG 261732Z 2618/2718 20005KT P6SM FEW050
     FM270000 00000KT P6SM SCT200
     FM271700 35006KT P6SM SCT070=

USA.gov is the U.S. government's official web portal to all federal, state and local government web resources and services.